createdAt,value
2017-11-26T00:00:17.449Z,13.73
2017-11-26T00:02:44.960Z,13.37
2017-11-26T00:05:12.473Z,11.43
2017-11-26T00:07:40.054Z,9.40
2017-11-26T00:10:07.597Z,12.73
2017-11-26T00:12:35.139Z,9.97
2017-11-26T00:15:02.713Z,10.63
2017-11-26T00:17:30.253Z,9.20
2017-11-26T00:19:57.828Z,11.50
2017-11-26T00:22:25.367Z,11.97
2017-11-26T00:24:52.942Z,10.03
2017-11-26T00:27:20.464Z,9.20
2017-11-26T00:29:47.992Z,9.23
2017-11-26T00:32:15.549Z,6.80
2017-11-26T00:34:43.065Z,6.20
2017-11-26T00:37:10.589Z,6.00
2017-11-26T00:39:38.125Z,5.83
2017-11-26T00:42:05.698Z,4.70
2017-11-26T00:44:33.227Z,5.13
2017-11-26T00:47:00.757Z,5.33
2017-11-26T00:49:28.342Z,5.53
2017-11-26T00:51:55.871Z,4.47
2017-11-26T00:54:23.389Z,4.70
2017-11-26T00:56:50.963Z,4.50
2017-11-26T00:59:18.491Z,5.70
2017-11-26T01:01:46.019Z,6.10
2017-11-26T01:04:13.586Z,6.93
2017-11-26T01:06:41.114Z,5.13
2017-11-26T01:09:08.631Z,4.70
2017-11-26T01:11:36.294Z,5.40
2017-11-26T01:14:03.843Z,5.80
2017-11-26T01:16:31.367Z,6.67
2017-11-26T01:18:58.910Z,7.70
2017-11-26T01:21:26.455Z,6.63
2017-11-26T01:23:54.059Z,6.90
2017-11-26T01:26:21.588Z,8.83
2017-11-26T01:28:49.107Z,9.23
2017-11-26T01:31:16.666Z,10.27
2017-11-26T01:33:44.197Z,10.20
2017-11-26T01:36:11.769Z,11.97
2017-11-26T01:38:39.339Z,11.53
2017-11-26T01:41:06.868Z,13.80
2017-11-26T01:43:34.423Z,15.43
2017-11-26T01:46:01.946Z,16.70
2017-11-26T01:48:29.726Z,17.40
2017-11-26T01:50:57.241Z,17.27
2017-11-26T01:53:24.769Z,18.33
2017-11-26T01:55:52.366Z,19.73
2017-11-26T01:58:19.960Z,21.70
2017-11-26T02:00:50.316Z,20.90
2017-11-26T02:03:17.900Z,22.00
2017-11-26T02:05:45.479Z,21.43
2017-11-26T02:08:13.019Z,18.90
2017-11-26T02:10:40.575Z,21.97
2017-11-26T02:13:08.108Z,21.03
2017-11-26T02:15:35.664Z,23.10
2017-11-26T02:18:03.224Z,22.53
2017-11-26T02:20:30.806Z,24.87
2017-11-26T02:22:59.352Z,27.13
2017-11-26T02:25:27.122Z,28.20
2017-11-26T02:27:54.685Z,24.97
2017-11-26T02:30:22.218Z,25.93
2017-11-26T02:33:01.650Z,26.63
2017-11-26T02:35:39.028Z,25.83
2017-11-26T02:38:06.614Z,27.90
2017-11-26T02:40:34.154Z,29.33
2017-11-26T02:43:01.752Z,30.00
2017-11-26T02:45:29.310Z,29.07
2017-11-26T02:47:56.851Z,30.57
2017-11-26T02:50:24.459Z,27.60
2017-11-26T02:52:52.064Z,25.57
2017-11-26T02:55:19.593Z,28.30
2017-11-26T02:57:47.184Z,26.40
2017-11-26T03:00:14.779Z,23.37
2017-11-26T03:02:42.300Z,27.57
2017-11-26T03:05:09.834Z,25.70
2017-11-26T03:07:37.403Z,26.63
2017-11-26T03:10:04.963Z,25.67
2017-11-26T03:12:32.549Z,27.30
2017-11-26T03:15:00.100Z,28.70
2017-11-26T03:17:27.648Z,26.10
2017-11-26T03:19:55.204Z,27.87
2017-11-26T03:22:22.733Z,27.70
2017-11-26T03:24:50.479Z,28.20
2017-11-26T03:27:18.021Z,28.23
2017-11-26T03:29:45.608Z,26.50
2017-11-26T03:32:13.323Z,26.60
2017-11-26T03:34:40.853Z,26.73
2017-11-26T03:37:08.409Z,28.83
2017-11-26T03:39:36.018Z,26.90
2017-11-26T03:42:03.547Z,27.70
2017-11-26T03:44:31.106Z,24.50
2017-11-26T03:46:58.782Z,25.47
2017-11-26T03:49:26.328Z,26.60
2017-11-26T03:51:53.888Z,26.10
2017-11-26T03:54:21.443Z,25.93
2017-11-26T03:56:48.974Z,24.13
2017-11-26T03:59:16.712Z,23.40
2017-11-26T04:01:44.243Z,26.87
2017-11-26T04:04:11.771Z,26.37
2017-11-26T04:06:39.519Z,27.03
2017-11-26T04:09:07.065Z,25.40
2017-11-26T04:11:34.621Z,20.70
2017-11-26T04:14:02.185Z,21.30
2017-11-26T04:16:29.928Z,26.67
2017-11-26T04:18:57.448Z,24.67
2017-11-26T04:21:25.000Z,26.80
2017-11-26T04:23:52.546Z,25.97
2017-11-26T04:26:20.112Z,22.43
2017-11-26T04:28:47.700Z,26.20
2017-11-26T04:31:15.221Z,23.30
2017-11-26T04:33:42.765Z,27.37
2017-11-26T04:36:10.361Z,22.90
2017-11-26T04:38:37.897Z,24.43
2017-11-26T04:41:05.439Z,23.63
2017-11-26T04:43:33.027Z,25.10
2017-11-26T04:46:00.575Z,23.20
2017-11-26T04:48:28.127Z,22.37
2017-11-26T04:50:55.839Z,18.40
2017-11-26T04:53:23.393Z,23.20
2017-11-26T04:55:51.019Z,21.00
2017-11-26T04:58:18.580Z,19.20
2017-11-26T05:00:46.244Z,19.87
2017-11-26T05:03:13.806Z,20.83
2017-11-26T05:05:41.582Z,20.30
2017-11-26T05:08:09.263Z,18.97
2017-11-26T05:10:36.781Z,20.20
2017-11-26T05:13:04.502Z,20.60
2017-11-26T05:15:32.033Z,19.63
2017-11-26T05:17:59.572Z,19.13
2017-11-26T05:20:27.246Z,20.97
2017-11-26T05:22:54.786Z,19.70
2017-11-26T05:25:22.422Z,21.80
2017-11-26T05:27:49.993Z,19.13
2017-11-26T05:30:17.508Z,16.90
2017-11-26T05:32:45.046Z,19.37
2017-11-26T05:35:12.625Z,15.87
2017-11-26T05:37:40.158Z,17.50
2017-11-26T05:40:07.685Z,20.23
2017-11-26T05:42:35.265Z,19.50
2017-11-26T05:45:02.831Z,20.27
2017-11-26T05:47:30.365Z,18.97
2017-11-26T05:49:57.945Z,19.37
2017-11-26T05:52:25.469Z,15.90
2017-11-26T05:54:53.014Z,21.27
2017-11-26T05:57:20.570Z,20.73
2017-11-26T05:59:48.274Z,20.67
2017-11-26T06:02:15.807Z,19.90
2017-11-26T06:04:43.346Z,21.20
2017-11-26T06:07:10.911Z,17.10
2017-11-26T06:09:38.444Z,23.37
2017-11-26T06:12:06.152Z,21.23
2017-11-26T06:14:33.675Z,22.07
2017-11-26T06:17:01.189Z,20.03
2017-11-26T06:19:28.729Z,19.57
2017-11-26T06:21:56.250Z,13.63
2017-11-26T06:24:23.915Z,17.57
2017-11-26T06:26:51.446Z,18.07
2017-11-26T06:29:18.973Z,18.80
2017-11-26T06:31:46.633Z,18.40
2017-11-26T06:34:14.161Z,17.97
2017-11-26T06:36:41.690Z,18.57
2017-11-26T06:39:09.246Z,19.80
2017-11-26T06:41:36.789Z,21.50
2017-11-26T06:44:04.352Z,20.13
2017-11-26T06:46:31.899Z,19.50
2017-11-26T06:48:59.465Z,20.63
2017-11-26T06:51:27.006Z,19.80
2017-11-26T06:53:54.526Z,19.73
2017-11-26T06:56:22.183Z,18.10
2017-11-26T06:58:49.712Z,20.00
2017-11-26T07:01:17.233Z,18.67
2017-11-26T07:03:44.960Z,17.60
2017-11-26T07:06:12.469Z,17.37
2017-11-26T07:08:39.992Z,17.90
2017-11-26T07:11:07.583Z,19.13
2017-11-26T07:13:35.126Z,22.23
2017-11-26T07:16:02.645Z,18.60
2017-11-26T07:18:30.217Z,18.73
2017-11-26T07:20:57.779Z,16.30
2017-11-26T07:23:25.307Z,19.73
2017-11-26T07:25:52.882Z,16.20
2017-11-26T07:28:20.408Z,14.10
2017-11-26T07:30:47.954Z,13.03
2017-11-26T07:33:15.522Z,15.17
2017-11-26T07:35:43.040Z,9.87
2017-11-26T07:38:10.565Z,14.40
2017-11-26T07:40:38.100Z,13.90
2017-11-26T07:43:05.671Z,10.60
2017-11-26T07:45:33.292Z,13.63
2017-11-26T07:48:00.814Z,17.17
2017-11-26T07:50:28.396Z,11.93
2017-11-26T07:52:55.929Z,10.60
2017-11-26T07:55:23.453Z,11.03
2017-11-26T07:57:51.131Z,8.53
2017-11-26T08:00:18.669Z,13.33
2017-11-26T08:02:46.207Z,12.57
2017-11-26T08:05:13.776Z,12.87
2017-11-26T08:07:41.331Z,11.97
2017-11-26T08:10:08.859Z,13.53
2017-11-26T08:12:36.606Z,10.10
2017-11-26T08:15:04.136Z,11.07
2017-11-26T08:17:31.660Z,13.60
2017-11-26T08:19:59.214Z,10.70
2017-11-26T08:22:26.768Z,10.77
2017-11-26T08:24:54.314Z,10.47
2017-11-26T08:27:21.833Z,6.30
2017-11-26T08:29:49.501Z,9.97
2017-11-26T08:32:17.035Z,10.87
2017-11-26T08:34:44.541Z,9.03
2017-11-26T08:37:12.073Z,9.97
2017-11-26T08:39:39.595Z,10.40
2017-11-26T08:42:07.160Z,12.43
2017-11-26T08:44:34.701Z,10.07
2017-11-26T08:47:02.272Z,11.83
2017-11-26T08:49:29.811Z,10.30
2017-11-26T08:51:57.389Z,10.47
2017-11-26T08:54:24.928Z,9.10
2017-11-26T08:56:52.472Z,9.37
2017-11-26T08:59:20.017Z,6.50
2017-11-26T09:01:47.563Z,5.70
2017-11-26T09:04:15.159Z,4.33
2017-11-26T09:06:44.523Z,4.23
2017-11-26T09:09:12.068Z,3.70
2017-11-26T09:11:39.675Z,3.43
2017-11-26T09:14:07.248Z,2.37
2017-11-26T09:16:34.771Z,3.27
2017-11-26T09:19:02.358Z,2.07
2017-11-26T09:21:29.881Z,3.67
2017-11-26T09:23:57.394Z,2.30
2017-11-26T09:26:25.123Z,3.10
2017-11-26T09:28:52.638Z,3.37
2017-11-26T09:31:20.158Z,4.30
2017-11-26T09:33:47.699Z,4.73
2017-11-26T09:36:15.382Z,4.60
2017-11-26T09:38:42.947Z,5.40
2017-11-26T09:41:10.495Z,6.77
2017-11-26T09:43:38.014Z,7.87
2017-11-26T09:46:05.702Z,7.60
2017-11-26T09:48:33.217Z,7.17
2017-11-26T09:51:00.738Z,8.20
2017-11-26T09:53:28.286Z,9.10
2017-11-26T09:55:55.835Z,9.20
2017-11-26T09:58:23.592Z,8.33
2017-11-26T10:00:51.120Z,7.33
2017-11-26T10:03:18.636Z,6.60
2017-11-26T10:05:46.210Z,4.90
2017-11-26T10:08:13.735Z,4.70
2017-11-26T10:10:41.253Z,4.87
2017-11-26T10:13:08.804Z,4.03
2017-11-26T10:15:36.320Z,3.87
2017-11-26T10:18:03.894Z,5.27
2017-11-26T10:20:31.428Z,4.10
2017-11-26T10:22:58.960Z,4.73
2017-11-26T10:25:26.490Z,4.73
2017-11-26T10:27:54.056Z,4.23
2017-11-26T10:30:21.570Z,4.33
2017-11-26T10:32:49.088Z,3.80
2017-11-26T10:35:16.627Z,4.37
2017-11-26T10:37:44.216Z,3.60
2017-11-26T10:40:11.717Z,3.40
2017-11-26T10:42:39.255Z,2.73
2017-11-26T10:45:06.802Z,3.80
2017-11-26T10:47:34.387Z,4.20
2017-11-26T10:50:01.938Z,4.57
2017-11-26T10:52:29.483Z,5.30
2017-11-26T10:54:57.073Z,5.40
2017-11-26T10:57:24.605Z,5.20
2017-11-26T10:59:52.158Z,6.07
2017-11-26T11:02:19.755Z,6.03
2017-11-26T11:04:47.302Z,6.30
2017-11-26T11:07:14.842Z,7.50
2017-11-26T11:09:42.435Z,5.90
2017-11-26T11:12:09.945Z,4.90
2017-11-26T11:14:37.474Z,4.63
2017-11-26T11:17:05.077Z,4.30
2017-11-26T11:19:32.625Z,5.33
2017-11-26T11:22:00.171Z,3.93
2017-11-26T11:24:27.911Z,3.27
2017-11-26T11:26:55.443Z,5.20
2017-11-26T11:29:22.968Z,2.17
2017-11-26T11:31:50.513Z,3.10
2017-11-26T11:34:18.087Z,3.17
2017-11-26T11:36:45.718Z,3.80
2017-11-26T11:39:13.447Z,3.57
2017-11-26T11:41:40.949Z,2.37
2017-11-26T11:44:08.448Z,3.63
2017-11-26T11:46:36.010Z,2.30
2017-11-26T11:49:03.525Z,2.60
2017-11-26T11:51:31.060Z,1.90
2017-11-26T11:53:59.614Z,1.67
2017-11-26T11:56:27.146Z,0.87
2017-11-26T11:58:54.703Z,1.30
2017-11-26T12:01:22.238Z,0.97
2017-11-26T12:03:49.849Z,0.90
2017-11-26T12:06:17.359Z,1.30
2017-11-26T12:08:44.894Z,1.63
2017-11-26T12:11:12.564Z,0.90
2017-11-26T12:13:40.089Z,1.33
2017-11-26T12:16:07.623Z,1.10
2017-11-26T12:18:35.226Z,1.30
2017-11-26T12:21:02.753Z,0.90
2017-11-26T12:23:30.276Z,0.80
2017-11-26T12:25:57.856Z,1.50
2017-11-26T12:28:25.386Z,1.73
2017-11-26T12:30:52.921Z,1.10
2017-11-26T12:33:20.658Z,1.00
2017-11-26T12:35:48.208Z,1.10
2017-11-26T12:38:15.781Z,1.30
2017-11-26T12:40:43.488Z,1.00
2017-11-26T12:43:11.030Z,0.80
2017-11-26T12:45:38.579Z,0.97
2017-11-26T12:48:06.314Z,0.93
2017-11-26T12:50:33.842Z,0.70
2017-11-26T12:53:01.394Z,0.90
2017-11-26T12:55:28.973Z,1.30
2017-11-26T12:57:56.518Z,1.30
2017-11-26T13:00:24.180Z,0.97
2017-11-26T13:02:51.691Z,0.90
2017-11-26T13:05:19.230Z,0.90
2017-11-26T13:07:48.337Z,0.77
2017-11-26T13:10:15.929Z,0.80
2017-11-26T13:12:43.510Z,0.90
2017-11-26T13:15:11.062Z,0.87
2017-11-26T13:17:38.615Z,1.13
2017-11-26T13:20:06.192Z,1.00
2017-11-26T13:22:33.781Z,1.17
2017-11-26T13:25:01.308Z,1.10
2017-11-26T13:27:29.002Z,1.50
2017-11-26T13:29:56.598Z,1.17
2017-11-26T13:32:24.131Z,1.03
2017-11-26T13:34:51.811Z,1.40
2017-11-26T13:37:19.628Z,1.00
2017-11-26T13:39:47.174Z,0.90
2017-11-26T13:42:14.718Z,0.90
2017-11-26T13:44:42.413Z,1.33
2017-11-26T13:47:10.028Z,0.90
2017-11-26T13:49:37.614Z,1.23
2017-11-26T13:52:05.258Z,1.03
2017-11-26T13:54:32.786Z,0.70
2017-11-26T13:57:00.323Z,1.13
2017-11-26T13:59:27.894Z,0.97
2017-11-26T14:01:55.500Z,1.33
2017-11-26T14:04:23.095Z,1.33
2017-11-26T14:06:50.670Z,1.30
2017-11-26T14:09:18.215Z,1.57
2017-11-26T14:11:45.787Z,1.20
2017-11-26T14:14:13.326Z,1.03
2017-11-26T14:16:41.082Z,1.27
2017-11-26T14:19:08.601Z,1.10
2017-11-26T14:21:36.142Z,1.43
2017-11-26T14:24:03.914Z,1.67
2017-11-26T14:26:31.457Z,2.27
2017-11-26T14:28:58.988Z,1.70
2017-11-26T14:31:26.593Z,2.20
2017-11-26T14:33:54.121Z,2.50
2017-11-26T14:36:21.649Z,1.97
2017-11-26T14:38:49.225Z,2.23
2017-11-26T14:41:16.757Z,2.17
2017-11-26T14:43:45.505Z,2.20
2017-11-26T14:46:13.046Z,2.17
2017-11-26T14:48:40.590Z,2.20
2017-11-26T14:51:08.338Z,1.73
2017-11-26T14:53:35.878Z,1.93
2017-11-26T14:56:03.418Z,1.80
2017-11-26T14:58:30.970Z,1.77
2017-11-26T15:00:58.558Z,1.60
2017-11-26T15:03:26.114Z,2.10
2017-11-26T15:05:53.694Z,2.20
2017-11-26T15:08:21.224Z,1.43
2017-11-26T15:10:48.766Z,1.63
2017-11-26T15:13:16.398Z,1.60
2017-11-26T15:15:43.938Z,2.80
2017-11-26T15:18:11.461Z,2.10
2017-11-26T15:20:39.000Z,1.63
2017-11-26T15:23:06.585Z,2.50
2017-11-26T15:25:34.247Z,2.00
2017-11-26T15:28:01.809Z,1.80
2017-11-26T15:30:29.358Z,2.10
2017-11-26T15:32:56.919Z,1.83
2017-11-26T15:35:24.450Z,1.93
2017-11-26T15:37:52.011Z,1.80
2017-11-26T15:40:19.569Z,1.90
2017-11-26T15:42:47.362Z,2.30
2017-11-26T15:45:14.892Z,2.63
2017-11-26T15:47:42.431Z,1.97
2017-11-26T15:50:10.072Z,2.10
2017-11-26T15:52:37.608Z,2.83
2017-11-26T15:55:05.152Z,2.70
2017-11-26T15:57:32.705Z,2.80
2017-11-26T16:00:00.253Z,2.60
2017-11-26T16:02:27.833Z,2.60
2017-11-26T16:04:55.371Z,3.10
2017-11-26T16:07:22.974Z,2.80
2017-11-26T16:09:50.513Z,4.27
2017-11-26T16:12:18.110Z,5.20
2017-11-26T16:14:45.655Z,3.60
2017-11-26T16:17:13.213Z,4.47
2017-11-26T16:19:40.892Z,3.30
2017-11-26T16:22:08.443Z,5.03
2017-11-26T16:24:35.974Z,6.40
2017-11-26T16:27:03.556Z,5.80
2017-11-26T16:29:31.112Z,5.17
2017-11-26T16:31:58.674Z,6.43
2017-11-26T16:34:26.493Z,5.67
2017-11-26T16:36:54.042Z,5.40
2017-11-26T16:39:21.569Z,7.00
2017-11-26T16:41:49.140Z,5.33
2017-11-26T16:44:16.746Z,5.80
2017-11-26T16:46:44.460Z,6.17
2017-11-26T16:49:12.016Z,5.70
2017-11-26T16:51:39.637Z,7.23
2017-11-26T16:54:07.208Z,5.63
2017-11-26T16:56:34.771Z,6.47
2017-11-26T16:59:02.382Z,6.23
2017-11-26T17:01:29.971Z,6.80
2017-11-26T17:03:57.533Z,6.97
2017-11-26T17:06:25.133Z,6.37
2017-11-26T17:08:52.679Z,7.30
2017-11-26T17:11:20.213Z,7.70
2017-11-26T17:13:47.974Z,6.27
2017-11-26T17:16:15.517Z,6.83
2017-11-26T17:18:43.084Z,7.30
2017-11-26T17:21:10.653Z,8.27
2017-11-26T17:23:38.272Z,5.23
2017-11-26T17:26:05.843Z,4.33
2017-11-26T17:28:33.402Z,4.40
2017-11-26T17:31:01.099Z,4.50
2017-11-26T17:33:28.667Z,3.80
2017-11-26T17:35:56.227Z,4.53
2017-11-26T17:38:23.890Z,3.90
2017-11-26T17:40:51.429Z,6.20
2017-11-26T17:43:18.971Z,6.23
2017-11-26T17:45:46.546Z,5.80
2017-11-26T17:48:14.089Z,5.13
2017-11-26T17:50:41.657Z,6.67
2017-11-26T17:53:10.158Z,6.57
2017-11-26T17:55:37.703Z,6.00
2017-11-26T17:58:05.240Z,5.67
2017-11-26T18:00:32.862Z,6.40
2017-11-26T18:03:00.407Z,6.97
2017-11-26T18:05:27.987Z,6.53
2017-11-26T18:07:55.546Z,6.40
2017-11-26T18:10:23.058Z,7.60
2017-11-26T18:12:50.655Z,6.40
2017-11-26T18:15:18.260Z,6.40
2017-11-26T18:17:45.807Z,6.70
2017-11-26T18:20:13.583Z,6.30
2017-11-26T18:22:41.119Z,6.70
2017-11-26T18:25:08.637Z,6.20
2017-11-26T18:27:36.201Z,5.43
2017-11-26T18:30:03.763Z,6.27
2017-11-26T18:32:31.282Z,7.20
2017-11-26T18:34:59.047Z,6.33
2017-11-26T18:37:26.577Z,6.57
2017-11-26T18:39:54.103Z,6.60
2017-11-26T18:42:21.674Z,6.23
2017-11-26T18:44:49.190Z,5.57
2017-11-26T18:47:16.758Z,5.23
2017-11-26T18:49:44.289Z,6.03
2017-11-26T18:52:11.810Z,6.10
2017-11-26T18:54:39.357Z,5.50
2017-11-26T18:57:06.878Z,5.90
2017-11-26T18:59:34.421Z,5.83
2017-11-26T19:02:02.001Z,5.73
2017-11-26T19:04:29.575Z,5.10
2017-11-26T19:06:57.090Z,6.10
2017-11-26T19:09:24.619Z,7.87
2017-11-26T19:11:52.416Z,6.27
2017-11-26T19:14:19.967Z,7.30
2017-11-26T19:16:47.492Z,6.83
2017-11-26T19:19:15.227Z,7.10
2017-11-26T19:21:42.741Z,6.33
2017-11-26T19:24:10.350Z,5.87
2017-11-26T19:26:37.929Z,6.20
2017-11-26T19:29:05.441Z,7.97
2017-11-26T19:31:32.970Z,6.73
2017-11-26T19:34:00.525Z,6.97
2017-11-26T19:36:28.071Z,6.50
2017-11-26T19:38:55.651Z,8.67
2017-11-26T19:41:23.253Z,6.87
2017-11-26T19:43:50.800Z,5.67
2017-11-26T19:46:18.373Z,7.30
2017-11-26T19:48:45.918Z,6.73
2017-11-26T19:51:13.459Z,6.73
2017-11-26T19:53:41.048Z,8.23
2017-11-26T19:56:08.591Z,8.70
2017-11-26T19:58:36.127Z,6.80
2017-11-26T20:01:03.709Z,6.87
2017-11-26T20:03:31.249Z,7.53
2017-11-26T20:05:58.758Z,8.40
2017-11-26T20:08:26.352Z,5.93
2017-11-26T20:10:53.904Z,7.60
2017-11-26T20:13:21.417Z,7.17
2017-11-26T20:15:49.075Z,6.67
2017-11-26T20:18:16.606Z,7.10
2017-11-26T20:20:44.139Z,7.30
2017-11-26T20:23:12.654Z,5.80
2017-11-26T20:25:40.160Z,6.40
2017-11-26T20:28:07.786Z,5.47
2017-11-26T20:30:35.463Z,6.13
2017-11-26T20:33:02.976Z,5.37
2017-11-26T20:35:30.494Z,6.80
2017-11-26T20:37:58.066Z,6.10
2017-11-26T20:40:25.671Z,5.53
2017-11-26T20:42:53.200Z,5.27
2017-11-26T20:45:20.728Z,5.87
2017-11-26T20:47:48.279Z,5.07
2017-11-26T20:50:15.822Z,5.53
2017-11-26T20:52:43.391Z,5.07
2017-11-26T20:55:10.914Z,4.83
2017-11-26T20:57:38.433Z,5.20
2017-11-26T21:00:06.124Z,5.23
2017-11-26T21:02:33.650Z,5.90
2017-11-26T21:05:01.202Z,4.87
2017-11-26T21:07:28.732Z,5.50
2017-11-26T21:09:56.282Z,5.30
2017-11-26T21:12:23.815Z,5.33
2017-11-26T21:14:51.355Z,5.00
2017-11-26T21:17:18.919Z,5.40
2017-11-26T21:19:46.602Z,4.70
2017-11-26T21:22:14.132Z,5.13
2017-11-26T21:24:41.670Z,5.60
2017-11-26T21:27:09.434Z,6.07
2017-11-26T21:29:36.978Z,4.77
2017-11-26T21:32:04.498Z,4.97
2017-11-26T21:34:32.246Z,6.40
2017-11-26T21:36:59.847Z,6.00
2017-11-26T21:39:27.391Z,5.47
2017-11-26T21:41:55.048Z,5.17
2017-11-26T21:44:22.561Z,5.97
2017-11-26T21:46:50.087Z,6.30
2017-11-26T21:49:17.819Z,7.30
2017-11-26T21:51:45.541Z,6.23
2017-11-26T21:54:13.070Z,5.73
2017-11-26T21:56:40.674Z,5.87
2017-11-26T21:59:08.194Z,6.97
2017-11-26T22:01:35.718Z,6.23
2017-11-26T22:04:03.444Z,6.40
2017-11-26T22:06:30.974Z,6.10
2017-11-26T22:08:58.497Z,7.10
2017-11-26T22:11:26.255Z,7.53
2017-11-26T22:13:53.770Z,7.50
2017-11-26T22:16:21.287Z,7.30
2017-11-26T22:18:48.861Z,6.77
2017-11-26T22:21:16.440Z,7.50
2017-11-26T22:23:43.961Z,8.30
2017-11-26T22:26:11.495Z,8.67
2017-11-26T22:28:39.175Z,8.30
2017-11-26T22:31:06.787Z,7.80
2017-11-26T22:33:34.315Z,8.97
2017-11-26T22:36:01.839Z,9.70
2017-11-26T22:38:29.377Z,9.43
2017-11-26T22:40:56.902Z,8.17
2017-11-26T22:43:25.033Z,8.93
2017-11-26T22:45:52.603Z,10.00
2017-11-26T22:48:20.141Z,9.13
2017-11-26T22:50:47.745Z,11.57
2017-11-26T22:53:15.291Z,10.73
2017-11-26T22:55:42.857Z,10.27
2017-11-26T22:58:10.568Z,10.47
2017-11-26T23:00:38.159Z,9.27
2017-11-26T23:03:05.686Z,9.47
2017-11-26T23:05:33.254Z,10.40
2017-11-26T23:08:00.832Z,9.67
2017-11-26T23:10:28.348Z,8.80
2017-11-26T23:12:55.917Z,8.97
2017-11-26T23:15:23.481Z,10.50
2017-11-26T23:17:51.005Z,8.80
2017-11-26T23:20:18.534Z,9.30
2017-11-26T23:22:46.095Z,8.53
2017-11-26T23:25:13.619Z,9.10
2017-11-26T23:27:41.196Z,7.97
2017-11-26T23:30:08.803Z,8.90
2017-11-26T23:32:36.386Z,9.20
2017-11-26T23:35:04.147Z,8.60
2017-11-26T23:37:31.698Z,9.60
2017-11-26T23:39:59.238Z,11.07
2017-11-26T23:42:26.979Z,11.40
2017-11-26T23:44:54.511Z,11.17
2017-11-26T23:47:22.066Z,12.17
2017-11-26T23:49:49.785Z,13.87
2017-11-26T23:52:17.419Z,12.13
2017-11-26T23:54:44.946Z,13.27
2017-11-26T23:57:12.497Z,10.37
2017-11-26T23:59:40.017Z,12.43
